createdAt,value
2018-07-19T00:00:20.249Z,53.94
2018-07-19T00:04:23.745Z,53.22
2018-07-19T00:08:27.222Z,53.94
2018-07-19T00:12:30.693Z,53.27
2018-07-19T00:16:35.835Z,53.76
2018-07-19T00:20:39.308Z,53.15
2018-07-19T00:24:42.813Z,53.41
2018-07-19T00:28:46.291Z,53.99
2018-07-19T00:32:49.805Z,52.93
2018-07-19T00:36:53.289Z,52.69
2018-07-19T00:40:56.786Z,52.66
2018-07-19T00:45:00.271Z,52.64
2018-07-19T00:49:03.730Z,53.25
2018-07-19T00:53:07.233Z,53.03
2018-07-19T00:57:10.903Z,52.90
2018-07-19T01:01:14.457Z,53.20
2018-07-19T01:05:17.890Z,52.45
2018-07-19T01:09:21.376Z,52.64
2018-07-19T01:13:24.844Z,53.40
2018-07-19T01:17:28.402Z,52.52
2018-07-19T01:21:33.947Z,53.28
2018-07-19T01:25:37.586Z,52.82
2018-07-19T01:29:41.085Z,52.50
2018-07-19T01:33:44.590Z,52.73
2018-07-19T01:37:48.067Z,53.13
2018-07-19T01:42:32.667Z,52.84
2018-07-19T01:46:36.155Z,52.69
2018-07-19T01:50:39.633Z,52.24
2018-07-19T01:54:43.449Z,51.99
2018-07-19T01:58:46.939Z,51.57
2018-07-19T02:02:56.233Z,52.01
2018-07-19T02:06:59.662Z,50.99
2018-07-19T02:11:03.135Z,51.55
2018-07-19T02:15:06.969Z,51.44
2018-07-19T02:19:10.967Z,50.90
2018-07-19T02:23:14.457Z,51.31
2018-07-19T02:27:17.945Z,51.11
2018-07-19T02:31:21.367Z,50.98
2018-07-19T02:35:24.828Z,50.70
2018-07-19T02:39:28.284Z,50.53
2018-07-19T02:43:31.743Z,50.45
2018-07-19T02:47:36.038Z,50.36
2018-07-19T02:51:40.508Z,49.69
2018-07-19T02:55:43.995Z,49.99
2018-07-19T02:59:47.555Z,49.44
2018-07-19T03:03:51.066Z,50.01
2018-07-19T03:07:54.585Z,49.29
2018-07-19T03:11:58.062Z,48.85
2018-07-19T03:16:01.536Z,49.27
2018-07-19T03:20:05.001Z,48.86
2018-07-19T03:24:08.493Z,49.83
2018-07-19T03:28:11.991Z,49.13
2018-07-19T03:32:15.430Z,49.22
2018-07-19T03:36:18.904Z,49.84
2018-07-19T03:40:22.426Z,49.18
2018-07-19T03:44:25.948Z,49.64
2018-07-19T03:48:29.457Z,49.67
2018-07-19T03:52:32.955Z,49.73
2018-07-19T03:56:36.474Z,49.20
2018-07-19T04:00:39.984Z,49.74
2018-07-19T04:04:43.481Z,49.19
2018-07-19T04:08:46.973Z,49.29
2018-07-19T04:12:50.451Z,49.04
2018-07-19T04:16:53.957Z,48.95
2018-07-19T04:20:57.468Z,49.17
2018-07-19T04:25:00.980Z,49.98
2018-07-19T04:29:04.442Z,49.80
2018-07-19T04:33:07.948Z,49.19
2018-07-19T04:37:11.430Z,49.05
2018-07-19T04:41:14.932Z,49.44
2018-07-19T04:45:18.438Z,49.58
2018-07-19T04:49:21.963Z,49.16
2018-07-19T04:53:25.446Z,48.73
2018-07-19T04:57:28.913Z,49.59
2018-07-19T05:01:32.366Z,49.11
2018-07-19T05:05:35.851Z,49.06
2018-07-19T05:09:39.306Z,49.23
2018-07-19T05:13:42.769Z,48.51
2018-07-19T05:17:46.283Z,49.06
2018-07-19T05:21:49.770Z,48.63
2018-07-19T05:25:53.176Z,47.88
2018-07-19T05:29:56.632Z,48.19
2018-07-19T05:34:00.105Z,46.93
2018-07-19T05:38:03.587Z,46.75
2018-07-19T05:42:07.088Z,47.31
2018-07-19T05:46:10.540Z,46.79
2018-07-19T05:50:14.015Z,45.60
2018-07-19T05:54:17.486Z,46.28
2018-07-19T05:58:21.059Z,45.69
2018-07-19T06:02:24.468Z,46.16
2018-07-19T06:06:27.929Z,45.18
2018-07-19T06:10:31.381Z,45.81
2018-07-19T06:14:34.859Z,45.92
2018-07-19T06:18:38.358Z,45.83
2018-07-19T06:22:41.801Z,46.04
2018-07-19T06:26:45.272Z,45.47
2018-07-19T06:30:48.722Z,45.82
2018-07-19T06:34:52.171Z,45.56
2018-07-19T06:38:55.698Z,45.59
2018-07-19T06:42:59.162Z,45.57
2018-07-19T06:47:02.640Z,45.76
2018-07-19T06:51:06.486Z,46.37
2018-07-19T06:55:09.958Z,46.12
2018-07-19T06:59:13.427Z,45.91
2018-07-19T07:03:16.963Z,45.29
2018-07-19T07:07:20.421Z,45.05
2018-07-19T07:11:24.022Z,45.86
2018-07-19T07:15:27.482Z,44.84
2018-07-19T07:19:30.939Z,45.72
2018-07-19T07:23:34.379Z,45.39
2018-07-19T07:27:37.845Z,45.55
2018-07-19T07:31:41.320Z,45.69
2018-07-19T07:35:45.226Z,44.32
2018-07-19T07:39:48.741Z,45.05
2018-07-19T07:43:52.199Z,44.46
2018-07-19T07:47:55.660Z,45.08
2018-07-19T07:51:59.312Z,44.97
2018-07-19T07:56:02.771Z,45.19
2018-07-19T08:00:07.179Z,45.02
2018-07-19T08:04:10.603Z,44.68
2018-07-19T08:08:14.050Z,45.14
2018-07-19T08:12:17.519Z,45.05
2018-07-19T08:16:21.010Z,44.30
2018-07-19T08:20:24.429Z,44.30
2018-07-19T08:24:27.931Z,44.09
2018-07-19T08:28:31.389Z,43.47
2018-07-19T08:32:35.039Z,42.98
2018-07-19T08:36:38.527Z,42.82
2018-07-19T08:40:42.000Z,43.39
2018-07-19T08:44:45.471Z,43.31
2018-07-19T08:48:48.929Z,42.59
2018-07-19T08:52:52.374Z,43.38
2018-07-19T08:56:55.827Z,42.89
2018-07-19T09:00:59.263Z,42.69
2018-07-19T09:05:02.718Z,42.01
2018-07-19T09:09:08.477Z,41.32
2018-07-19T09:13:11.928Z,41.81
2018-07-19T09:17:15.445Z,42.28
2018-07-19T09:21:18.883Z,41.29
2018-07-19T09:25:22.430Z,40.95
2018-07-19T09:29:25.905Z,41.82
2018-07-19T09:33:29.400Z,40.84
2018-07-19T09:37:32.855Z,39.56
2018-07-19T09:41:36.275Z,39.61
2018-07-19T09:45:39.720Z,39.69
2018-07-19T09:49:43.189Z,38.70
2018-07-19T09:53:46.699Z,40.17
2018-07-19T09:57:50.182Z,39.83
2018-07-19T10:01:53.695Z,39.00
2018-07-19T10:05:57.106Z,38.80
2018-07-19T10:10:00.543Z,38.97
2018-07-19T10:14:04.241Z,38.29
2018-07-19T10:18:07.730Z,39.22
2018-07-19T10:22:11.197Z,39.23
2018-07-19T10:26:14.670Z,37.58
2018-07-19T10:30:18.177Z,37.99
2018-07-19T10:34:21.702Z,38.62
2018-07-19T10:38:25.177Z,37.59
2018-07-19T10:42:28.753Z,37.49
2018-07-19T10:46:32.202Z,37.58
2018-07-19T10:50:35.681Z,37.39
2018-07-19T10:54:39.094Z,37.49
2018-07-19T10:58:42.589Z,36.48
2018-07-19T11:02:46.053Z,37.03
2018-07-19T11:06:49.493Z,37.46
2018-07-19T11:10:52.936Z,36.59
2018-07-19T11:14:56.400Z,37.42
2018-07-19T11:18:59.856Z,38.21
2018-07-19T11:23:03.314Z,36.97
2018-07-19T11:27:06.787Z,36.01
2018-07-19T11:31:10.234Z,35.85
2018-07-19T11:35:13.722Z,35.85
2018-07-19T11:39:17.212Z,36.51
2018-07-19T11:43:21.687Z,36.01
2018-07-19T11:47:25.117Z,37.65
2018-07-19T11:51:28.593Z,36.38
2018-07-19T11:55:32.091Z,35.05
2018-07-19T11:59:35.529Z,34.48
2018-07-19T12:03:39.055Z,36.10
2018-07-19T12:07:42.545Z,34.79
2018-07-19T12:11:45.993Z,34.60
2018-07-19T12:15:50.079Z,34.80
2018-07-19T12:19:53.574Z,34.73
2018-07-19T12:23:57.031Z,34.08
2018-07-19T12:28:00.555Z,34.44
2018-07-19T12:32:04.011Z,33.49
2018-07-19T12:36:07.630Z,33.73
2018-07-19T12:40:11.077Z,34.72
2018-07-19T12:44:14.563Z,34.11
2018-07-19T12:48:18.010Z,34.61
2018-07-19T12:52:21.511Z,32.66
2018-07-19T12:56:24.950Z,33.60
2018-07-19T13:00:28.465Z,34.97
2018-07-19T13:04:31.938Z,33.57
2018-07-19T13:08:35.368Z,32.89
2018-07-19T13:12:38.795Z,32.55
2018-07-19T13:16:42.303Z,32.31
2018-07-19T13:20:45.818Z,31.10
2018-07-19T13:24:49.534Z,32.09
2018-07-19T13:28:52.947Z,32.29
2018-07-19T13:32:56.402Z,31.16
2018-07-19T13:36:59.863Z,31.72
2018-07-19T13:41:03.408Z,31.75
2018-07-19T13:45:07.259Z,31.20
2018-07-19T13:49:10.833Z,31.19
2018-07-19T13:53:37.734Z,29.99
2018-07-19T13:57:41.187Z,30.50
2018-07-19T14:01:44.911Z,30.95
2018-07-19T14:05:48.535Z,30.64
2018-07-19T14:09:52.056Z,30.23
2018-07-19T14:13:55.591Z,30.27
2018-07-19T14:17:59.070Z,30.11
2018-07-19T14:22:02.620Z,30.40
2018-07-19T14:26:06.430Z,29.77
2018-07-19T14:30:09.933Z,30.11
2018-07-19T14:34:13.605Z,31.07
2018-07-19T14:38:17.851Z,30.26
2018-07-19T14:42:21.917Z,29.39
2018-07-19T14:46:25.542Z,30.11
2018-07-19T14:50:29.027Z,29.32
2018-07-19T14:54:32.536Z,29.75
2018-07-19T14:58:36.167Z,30.50
2018-07-19T15:02:40.014Z,30.09
2018-07-19T15:06:43.447Z,28.55
2018-07-19T15:10:46.942Z,29.40
2018-07-19T15:14:50.765Z,28.76
2018-07-19T15:18:54.270Z,29.79
2018-07-19T15:22:57.749Z,29.11
2018-07-19T15:27:01.223Z,29.88
2018-07-19T15:31:04.702Z,29.75
2018-07-19T15:35:08.173Z,28.61
2018-07-19T15:39:11.610Z,29.56
2018-07-19T15:43:15.007Z,29.36
2018-07-19T15:47:18.476Z,29.22
2018-07-19T15:51:21.952Z,29.96
2018-07-19T15:55:25.435Z,28.97
2018-07-19T15:59:28.825Z,29.36
2018-07-19T16:03:32.280Z,28.52
2018-07-19T16:07:35.761Z,28.98
2018-07-19T16:11:39.202Z,29.03
2018-07-19T16:15:42.688Z,28.32
2018-07-19T16:19:46.155Z,28.83
2018-07-19T16:23:49.648Z,29.29
2018-07-19T16:27:53.135Z,28.76
2018-07-19T16:31:56.603Z,28.53
2018-07-19T16:36:00.089Z,30.01
2018-07-19T16:40:03.527Z,28.94
2018-07-19T16:44:07.191Z,29.20
2018-07-19T16:48:10.702Z,30.17
2018-07-19T16:52:14.139Z,29.76
2018-07-19T16:56:17.621Z,28.79
2018-07-19T17:00:21.092Z,29.94
2018-07-19T17:04:24.565Z,29.74
2018-07-19T17:08:28.046Z,28.37
2018-07-19T17:12:31.606Z,29.64
2018-07-19T17:16:35.049Z,29.45
2018-07-19T17:20:38.518Z,29.92
2018-07-19T17:24:41.997Z,30.28
2018-07-19T17:28:45.451Z,29.25
2018-07-19T17:32:48.882Z,29.32
2018-07-19T17:36:52.363Z,29.91
2018-07-19T17:40:55.814Z,30.83
2018-07-19T17:44:59.263Z,31.24
2018-07-19T17:49:02.715Z,30.88
2018-07-19T17:53:06.674Z,30.97
2018-07-19T17:57:10.190Z,30.89
2018-07-19T18:01:13.693Z,30.96
2018-07-19T18:05:17.199Z,30.64
2018-07-19T18:09:20.670Z,31.09
2018-07-19T18:13:24.166Z,31.43
2018-07-19T18:17:27.639Z,32.68
2018-07-19T18:21:31.152Z,32.33
2018-07-19T18:25:34.624Z,32.20
2018-07-19T18:29:38.100Z,33.01
2018-07-19T18:33:41.628Z,33.64
2018-07-19T18:37:45.110Z,34.59
2018-07-19T18:41:48.561Z,34.93
2018-07-19T18:45:52.040Z,36.51
2018-07-19T18:49:55.454Z,35.85
2018-07-19T18:53:59.001Z,36.53
2018-07-19T18:58:02.486Z,37.25
2018-07-19T19:02:06.037Z,36.71
2018-07-19T19:06:09.550Z,36.91
2018-07-19T19:10:12.991Z,37.73
2018-07-19T19:14:16.408Z,37.04
2018-07-19T19:18:19.882Z,36.49
2018-07-19T19:22:23.351Z,37.28
2018-07-19T19:26:26.862Z,35.49
2018-07-19T19:30:30.317Z,36.47
2018-07-19T19:34:33.785Z,37.69
2018-07-19T19:38:37.267Z,38.22
2018-07-19T19:42:40.730Z,38.68
2018-07-19T19:46:44.191Z,39.21
2018-07-19T19:50:47.666Z,40.07
2018-07-19T19:54:51.448Z,40.02
2018-07-19T19:58:55.070Z,39.58
2018-07-19T20:02:58.492Z,40.49
2018-07-19T20:07:01.887Z,39.75
2018-07-19T20:11:05.267Z,39.97
2018-07-19T20:15:08.672Z,40.63
2018-07-19T20:19:12.088Z,40.96
2018-07-19T20:23:17.669Z,40.89
2018-07-19T20:27:21.047Z,41.18
2018-07-19T20:31:24.469Z,41.66
2018-07-19T20:35:27.900Z,42.26
2018-07-19T20:39:31.283Z,41.88
2018-07-19T20:43:35.677Z,42.36
2018-07-19T20:47:39.058Z,43.00
2018-07-19T20:51:42.512Z,42.53
2018-07-19T20:55:45.891Z,43.50
2018-07-19T20:59:49.394Z,43.09
2018-07-19T21:03:52.916Z,44.33
2018-07-19T21:07:56.557Z,44.30
2018-07-19T21:11:59.977Z,45.52
2018-07-19T21:16:03.465Z,45.78
2018-07-19T21:20:06.943Z,46.04
2018-07-19T21:24:10.319Z,45.29
2018-07-19T21:28:13.717Z,46.00
2018-07-19T21:32:17.162Z,46.17
2018-07-19T21:36:20.652Z,45.96
2018-07-19T21:40:24.036Z,45.75
2018-07-19T21:44:27.469Z,46.79
2018-07-19T21:48:31.013Z,46.54
2018-07-19T21:52:34.420Z,46.57
2018-07-19T21:56:37.816Z,46.72
2018-07-19T22:00:46.406Z,47.80
2018-07-19T22:04:49.781Z,48.27
2018-07-19T22:08:53.192Z,47.79
2018-07-19T22:12:56.576Z,48.22
2018-07-19T22:16:59.997Z,48.16
2018-07-19T22:21:03.374Z,49.15
2018-07-19T22:25:06.977Z,49.16
2018-07-19T22:29:10.369Z,49.44
2018-07-19T22:33:13.761Z,49.85
2018-07-19T22:37:17.158Z,49.47
2018-07-19T22:41:20.735Z,50.34
2018-07-19T22:45:24.644Z,50.46
2018-07-19T22:49:28.221Z,50.10
2018-07-19T22:53:33.952Z,50.35
2018-07-19T22:57:37.408Z,50.60
2018-07-19T23:01:40.860Z,50.76
2018-07-19T23:05:44.373Z,50.94
2018-07-19T23:09:47.888Z,50.86
2018-07-19T23:13:51.473Z,51.31
2018-07-19T23:17:55.317Z,51.06
2018-07-19T23:21:59.009Z,51.74
2018-07-19T23:26:03.033Z,51.11
2018-07-19T23:30:07.023Z,52.10
2018-07-19T23:34:12.302Z,51.90
2018-07-19T23:38:23.614Z,51.96
2018-07-19T23:42:46.892Z,52.19
2018-07-19T23:47:25.799Z,52.38
2018-07-19T23:51:30.476Z,52.37
2018-07-19T23:55:34.912Z,51.84
2018-07-19T23:59:39.620Z,52.00
